Time;durP1;ratioP1;P1;durP2;ratioP2;P2;SDS_P1;SDS_P2;PMS_P1;PMS_P2;Temp;Humidity;BMP_temperature;BMP_pressure;BME280_temperature;BME280_humidity;BME280_pressure;Samples;Min_cycle;Max_cycle;Signal;HPM_P1;HPM_P2
2021/06/18 00:01:39;;;;;;;1999.90;999.90;;;23.00;99.90;;;;;;5053394;28;20201;-78
2021/06/18 00:04:05;;;;;;;1999.90;999.90;;;22.90;99.90;;;;;;5053617;28;20193;-78
2021/06/18 00:06:30;;;;;;;1999.90;999.90;;;22.90;99.90;;;;;;5053391;28;20324;-78
2021/06/18 00:08:56;;;;;;;1999.90;999.90;;;22.70;99.90;;;;;;5054225;28;20205;-78
2021/06/18 00:11:22;;;;;;;1999.90;999.90;;;22.70;99.90;;;;;;5053681;28;20235;-78
2021/06/18 00:13:47;;;;;;;1999.90;999.90;;;22.50;99.90;;;;;;5027658;28;20288;-79
2021/06/18 00:16:13;;;;;;;1999.90;999.90;;;22.40;99.90;;;;;;5035569;28;20213;-78
2021/06/18 00:18:40;;;;;;;1999.90;999.90;;;22.10;99.90;;;;;;5052811;28;20284;-78
2021/06/18 00:21:06;;;;;;;1999.90;999.90;;;22.10;99.90;;;;;;5034785;28;20769;-79
2021/06/18 00:23:31;;;;;;;1999.90;999.90;;;22.00;99.90;;;;;;5035548;28;20211;-78
2021/06/18 00:25:57;;;;;;;1999.90;999.90;;;21.80;99.90;;;;;;5035558;28;20216;-79
2021/06/18 00:28:23;;;;;;;1999.90;999.90;;;21.80;99.90;;;;;;5035096;28;20308;-78
2021/06/18 00:30:49;;;;;;;1999.90;999.90;;;22.00;99.90;;;;;;5039303;28;20190;-79
2021/06/18 00:33:14;;;;;;;1999.90;999.90;;;22.10;99.90;;;;;;5017035;28;20565;-78
2021/06/18 00:35:40;;;;;;;1999.90;999.90;;;22.20;99.90;;;;;;5033919;28;20721;-78
2021/06/18 00:38:05;;;;;;;1999.90;999.90;;;22.30;99.90;;;;;;5032454;28;20202;-79
2021/06/18 00:40:31;;;;;;;1999.90;999.90;;;22.40;99.90;;;;;;5039927;28;20562;-77
2021/06/18 00:42:57;;;;;;;1999.90;999.90;;;22.60;99.90;;;;;;5034389;28;20680;-79
2021/06/18 00:45:23;;;;;;;1999.90;999.90;;;22.60;99.90;;;;;;5036477;28;20181;-78
2021/06/18 00:47:51;;;;;;;1999.90;999.90;;;22.60;99.90;;;;;;5034761;28;20218;-78
2021/06/18 00:50:18;;;;;;;1999.90;999.90;;;22.50;99.90;;;;;;5034692;28;20747;-78
2021/06/18 00:52:43;;;;;;;1999.90;999.90;;;22.50;99.90;;;;;;5036440;28;20202;-79
2021/06/18 00:55:10;;;;;;;1999.90;999.90;;;22.40;99.90;;;;;;5034588;28;20676;-78
2021/06/18 00:57:37;;;;;;;1999.90;999.90;;;22.40;99.90;;;;;;5052805;28;21051;-78
2021/06/18 01:00:05;;;;;;;1999.90;999.90;;;22.40;99.90;;;;;;5052446;28;20225;-78
2021/06/18 01:02:31;;;;;;;1999.90;999.90;;;22.40;99.90;;;;;;5052454;28;20551;-78
2021/06/18 01:04:56;;;;;;;1999.90;999.90;;;22.30;99.90;;;;;;5052683;28;20188;-77
2021/06/18 01:07:29;;;;;;;1999.90;999.90;;;22.20;99.90;;;;;;5052369;28;20201;-78
2021/06/18 01:10:28;;;;;;;1999.90;999.90;;;22.10;99.90;;;;;;5035279;28;20267;-78
2021/06/18 01:13:28;;;;;;;1999.90;999.90;;;21.90;99.90;;;;;;5043429;28;20204;-79
2021/06/18 01:16:14;;;;;;;1999.90;999.90;;;21.70;99.90;;;;;;5052738;28;20621;-78
2021/06/18 01:19:19;;;;;;;1999.90;999.90;;;21.70;99.90;;;;;;5034604;28;20263;-78
2021/06/18 01:21:50;;;;;;;1999.90;999.90;;;21.70;99.90;;;;;;5052099;28;20573;-78
2021/06/18 01:24:16;;;;;;;1999.90;999.90;;;21.60;99.90;;;;;;5051866;28;20264;-78
2021/06/18 01:26:57;;;;;;;1999.90;999.90;;;21.60;99.90;;;;;;5052128;28;20265;-78
2021/06/18 01:29:25;;;;;;;1999.90;999.90;;;21.50;99.90;;;;;;5033994;28;20204;-78
2021/06/18 01:31:51;;;;;;;1999.90;999.90;;;21.40;99.90;;;;;;5051894;28;20186;-78
2021/06/18 01:34:24;;;;;;;1999.90;999.90;;;21.20;99.90;;;;;;5051935;28;20185;-78
2021/06/18 01:36:54;;;;;;;1999.90;999.90;;;21.20;99.90;;;;;;5051721;28;20189;-77
2021/06/18 01:39:23;;;;;;;1999.90;999.90;;;21.30;99.90;;;;;;5033779;28;20236;-79
2021/06/18 01:41:50;;;;;;;1999.90;999.90;;;21.30;99.90;;;;;;5034266;28;20193;-78
2021/06/18 01:44:18;;;;;;;1999.90;999.90;;;21.00;99.90;;;;;;5018290;28;20186;-78
2021/06/18 01:46:46;;;;;;;1999.90;999.90;;;21.00;99.90;;;;;;5051303;28;20181;-78
2021/06/18 01:49:13;;;;;;;1999.90;999.90;;;21.00;99.90;;;;;;5033826;28;20235;-78
2021/06/18 01:51:40;;;;;;;1999.90;999.90;;;21.00;99.90;;;;;;5052127;28;20280;-78
2021/06/18 01:54:07;;;;;;;1999.90;999.90;;;20.70;99.90;;;;;;5034812;28;20277;-78
2021/06/18 01:56:37;;;;;;;1999.90;999.90;;;20.80;99.90;;;;;;5051364;28;20193;-78
2021/06/18 01:59:04;;;;;;;1999.90;999.90;;;20.90;99.90;;;;;;5033294;28;20610;-78
2021/06/18 02:01:35;;;;;;;1999.90;999.90;;;20.90;99.90;;;;;;5051263;28;20181;-78
2021/06/18 02:04:04;;;;;;;1999.90;999.90;;;20.90;99.90;;;;;;5050965;28;20170;-78
2021/06/18 02:06:31;;;;;;;1999.90;999.90;;;20.90;99.90;;;;;;5033357;28;20281;-79
2021/06/18 02:08:59;;;;;;;1999.90;999.90;;;20.90;99.90;;;;;;5032901;28;20577;-78
2021/06/18 02:11:28;;;;;;;1999.90;999.90;;;20.80;99.90;;;;;;5035717;28;20316;-79
2021/06/18 02:13:55;;;;;;;1999.90;999.90;;;20.80;99.90;;;;;;5026259;28;20186;-79
2021/06/18 02:16:25;;;;;;;1999.90;999.90;;;20.80;99.90;;;;;;5048112;28;20666;-78
2021/06/18 02:18:54;;;;;;;1999.90;999.90;;;20.70;99.90;;;;;;5030966;28;20705;-78
2021/06/18 02:21:20;;;;;;;1999.90;999.90;;;20.80;99.90;;;;;;5032583;28;20189;-78
2021/06/18 02:23:48;;;;;;;1999.90;999.90;;;20.80;99.90;;;;;;5050993;28;20494;-77
2021/06/18 02:26:15;;;;;;;1999.90;999.90;;;20.60;99.90;;;;;;5050772;28;20184;-78
2021/06/18 02:28:40;;;;;;;1999.90;999.90;;;20.40;99.90;;;;;;5050281;28;20303;-79
2021/06/18 02:31:07;;;;;;;1999.90;999.90;;;20.20;99.90;;;;;;5052206;28;20260;-78
2021/06/18 02:33:33;;;;;;;1999.90;999.90;;;20.10;99.90;;;;;;5032652;28;20182;-78
2021/06/18 02:35:59;;;;;;;1999.90;999.90;;;20.10;99.90;;;;;;5051204;28;20228;-78
2021/06/18 02:38:24;;;;;;;1999.90;999.90;;;19.60;99.90;;;;;;5050421;28;20216;-78
2021/06/18 02:40:50;;;;;;;1999.90;999.90;;;19.40;99.90;;;;;;5051208;28;20189;-79
2021/06/18 02:43:16;;;;;;;1999.90;999.90;;;19.70;99.90;;;;;;5052025;28;20629;-78
2021/06/18 02:45:41;;;;;;;1999.90;999.90;;;20.00;99.90;;;;;;5050792;28;20598;-78
2021/06/18 02:48:20;;;;;;;1999.90;999.90;;;20.30;99.90;;;;;;5050914;28;20676;-79
2021/06/18 02:50:57;;;;;;;1999.90;999.90;;;20.50;99.90;;;;;;5032740;28;20276;-78
2021/06/18 02:53:26;;;;;;;1999.90;999.90;;;20.70;99.90;;;;;;5050679;28;20189;-78
2021/06/18 02:55:58;;;;;;;1999.90;999.90;;;20.80;99.90;;;;;;5050315;28;20174;-77
2021/06/18 02:58:29;;;;;;;1999.90;999.90;;;20.90;99.90;;;;;;5050576;28;20209;-78
2021/06/18 03:00:55;;;;;;;1999.90;999.90;;;20.90;99.90;;;;;;5032372;28;20669;-78
2021/06/18 03:03:38;;;;;;;1999.90;999.90;;;20.90;99.90;;;;;;5050593;28;20186;-78
2021/06/18 03:06:06;;;;;;;1999.90;999.90;;;20.90;99.90;;;;;;5045259;28;20663;-78
2021/06/18 03:08:40;;;;;;;1999.90;999.90;;;20.90;99.90;;;;;;5032082;28;20219;-78
2021/06/18 03:11:06;;;;;;;1999.90;999.90;;;20.90;99.90;;;;;;5051384;28;20236;-78
2021/06/18 03:13:42;;;;;;;1999.90;999.90;;;20.80;99.90;;;;;;5023612;28;20186;-79
2021/06/18 03:16:12;;;;;;;1999.90;999.90;;;20.60;99.90;;;;;;5040939;28;20663;-79
2021/06/18 03:18:43;;;;;;;1999.90;999.90;;;20.60;99.90;;;;;;5032230;28;20214;-79
2021/06/18 03:21:11;;;;;;;1999.90;999.90;;;20.60;99.90;;;;;;5038753;28;20652;-78
2021/06/18 03:23:37;;;;;;;1999.90;999.90;;;20.60;99.90;;;;;;5013785;28;20175;-78
2021/06/18 03:26:04;;;;;;;1999.90;999.90;;;20.60;99.90;;;;;;5032443;28;20209;-78
2021/06/18 03:28:32;;;;;;;1999.90;999.90;;;20.60;99.90;;;;;;5015671;28;20208;-78
2021/06/18 03:30:59;;;;;;;1999.90;999.90;;;20.50;99.90;;;;;;5032715;28;20534;-78
2021/06/18 03:33:26;;;;;;;1999.90;999.90;;;20.40;99.90;;;;;;5015468;28;20775;-78
2021/06/18 03:35:53;;;;;;;1999.90;999.90;;;20.30;99.90;;;;;;5031131;28;20174;-79
2021/06/18 03:38:19;;;;;;;1999.90;999.90;;;20.30;99.90;;;;;;5030342;28;20195;-79
2021/06/18 03:40:45;;;;;;;1999.90;999.90;;;20.20;99.90;;;;;;5032110;28;20199;-78
2021/06/18 03:43:13;;;;;;;1999.90;999.90;;;20.20;99.90;;;;;;5031790;28;20208;-79
2021/06/18 03:45:40;;;;;;;1999.90;999.90;;;20.30;99.90;;;;;;5014651;28;20182;-79
2021/06/18 03:48:10;;;;;;;1999.90;999.90;;;20.30;99.90;;;;;;5043642;28;20323;-78
2021/06/18 03:50:36;;;;;;;1999.90;999.90;;;20.10;99.90;;;;;;5052040;28;20181;-78
2021/06/18 03:53:02;;;;;;;1999.90;999.90;;;20.00;99.90;;;;;;5045116;28;20186;-79
2021/06/18 03:55:28;;;;;;;1999.90;999.90;;;20.00;99.90;;;;;;5046714;28;20274;-77
2021/06/18 03:57:55;;;;;;;1999.90;999.90;;;20.10;99.90;;;;;;5052251;28;20921;-79
2021/06/18 04:00:21;;;;;;;1999.90;999.90;;;20.00;99.90;;;;;;5047449;28;20228;-78
2021/06/18 04:02:49;;;;;;;1999.90;999.90;;;20.00;99.90;;;;;;5020410;28;20174;-78
2021/06/18 04:05:19;;;;;;;1999.90;999.90;;;19.90;99.90;;;;;;5009520;28;20669;-78
2021/06/18 04:07:47;;;;;;;1999.90;999.90;;;19.90;99.90;;;;;;5020064;28;20723;-80
2021/06/18 04:10:17;;;;;;;1999.90;999.90;;;19.90;99.90;;;;;;5024081;28;20269;-79
2021/06/18 04:12:44;;;;;;;1999.90;999.90;;;19.80;99.90;;;;;;5038977;28;20175;-78
2021/06/18 04:15:11;;;;;;;1999.90;999.90;;;19.80;99.90;;;;;;5031371;28;20229;-79
2021/06/18 04:17:39;;;;;;;1999.90;999.90;;;19.80;99.90;;;;;;5051516;28;20289;-78
2021/06/18 04:20:05;;;;;;;1999.90;999.90;;;19.70;99.90;;;;;;5056451;28;20205;-77
2021/06/18 04:22:32;;;;;;;1999.90;999.90;;;19.60;99.90;;;;;;5038500;28;20182;-78
2021/06/18 04:24:58;;;;;;;1999.90;999.90;;;19.70;99.90;;;;;;5055248;28;20177;-78
2021/06/18 04:27:25;;;;;;;1999.90;999.90;;;19.70;99.90;;;;;;5053715;28;20220;-78
2021/06/18 04:29:51;;;;;;;1999.90;999.90;;;19.80;99.90;;;;;;5029890;28;20183;-78
2021/06/18 04:32:17;;;;;;;1999.90;999.90;;;19.80;99.90;;;;;;5018146;28;20183;-79
2021/06/18 04:34:43;;;;;;;1999.90;999.90;;;19.90;99.90;;;;;;5019620;28;20202;-78
2021/06/18 04:37:09;;;;;;;1999.90;999.90;;;20.00;99.90;;;;;;5028941;28;20240;-77
2021/06/18 04:39:34;;;;;;;1999.90;999.90;;;20.10;99.90;;;;;;5046328;28;20220;-82
2021/06/18 04:42:04;;;;;;;1999.90;999.90;;;20.10;99.90;;;;;;5056623;28;20180;-83
2021/06/18 04:44:30;;;;;;;1999.90;999.90;;;20.30;99.90;;;;;;5060983;28;20238;-82
2021/06/18 04:46:56;;;;;;;1999.90;999.90;;;20.40;99.90;;;;;;5032546;28;20217;-82
2021/06/18 04:49:22;;;;;;;1999.90;999.90;;;20.50;99.90;;;;;;5060177;28;20182;-78
2021/06/18 04:51:47;;;;;;;1999.90;999.90;;;20.60;99.90;;;;;;5057873;28;20178;-79
2021/06/18 04:54:13;;;;;;;1999.90;999.90;;;20.70;99.90;;;;;;5057105;28;20193;-79
2021/06/18 04:56:40;;;;;;;1999.90;999.90;;;20.80;99.90;;;;;;5039127;28;20182;-79
2021/06/18 04:59:06;;;;;;;1999.90;999.90;;;20.90;99.90;;;;;;5052777;28;20205;-79
2021/06/18 05:01:32;;;;;;;1999.90;999.90;;;21.00;99.90;;;;;;5039094;28;20178;-80
2021/06/18 05:03:58;;;;;;;1999.90;999.90;;;21.00;99.90;;;;;;5056458;28;20259;-79
2021/06/18 05:06:24;;;;;;;1999.90;999.90;;;21.10;99.90;;;;;;5056789;28;20189;-80
2021/06/18 05:08:51;;;;;;;1999.90;999.90;;;21.20;99.90;;;;;;5056979;28;20200;-78
2021/06/18 05:11:20;;;;;;;1999.90;999.90;;;21.30;99.90;;;;;;5056738;28;20533;-79
2021/06/18 05:13:45;;;;;;;1999.90;999.90;;;21.40;99.90;;;;;;5056207;28;20189;-79
2021/06/18 05:16:11;;;;;;;1999.90;999.90;;;21.40;99.90;;;;;;5056878;28;20182;-80
2021/06/18 05:18:37;;;;;;;1999.90;999.90;;;21.50;99.90;;;;;;5055052;28;20202;-79
2021/06/18 05:21:02;;;;;;;1999.90;999.90;;;21.40;99.90;;;;;;5038498;28;20189;-79
2021/06/18 05:23:28;;;;;;;1999.90;999.90;;;21.40;99.90;;;;;;5038623;28;20177;-78
2021/06/18 05:25:54;;;;;;;1999.90;999.90;;;21.30;99.90;;;;;;5038745;28;20192;-79
2021/06/18 05:28:19;;;;;;;1999.90;999.90;;;21.50;99.90;;;;;;5038281;28;20680;-78
2021/06/18 05:30:45;;;;;;;1999.90;999.90;;;21.60;99.90;;;;;;5037753;28;20211;-78
2021/06/18 05:33:13;;;;;;;1999.90;999.90;;;21.80;99.90;;;;;;5056548;28;20189;-79
2021/06/18 05:35:42;;;;;;;1999.90;999.90;;;21.90;99.90;;;;;;5028627;28;20182;-80
2021/06/18 05:38:07;;;;;;;1999.90;999.90;;;22.00;99.90;;;;;;5059916;28;20632;-79
2021/06/18 05:40:33;;;;;;;1999.90;999.90;;;22.10;99.90;;;;;;5039810;28;20225;-79
2021/06/18 05:42:59;;;;;;;1999.90;999.90;;;22.20;99.90;;;;;;5056139;28;20173;-80
2021/06/18 05:45:25;;;;;;;1999.90;999.90;;;22.30;99.90;;;;;;5043466;28;20245;-78
2021/06/18 05:47:50;;;;;;;1999.90;999.90;;;22.60;99.90;;;;;;5059171;28;20197;-79
2021/06/18 05:50:16;;;;;;;1999.90;999.90;;;22.70;99.90;;;;;;5059522;28;20182;-80
2021/06/18 05:52:42;;;;;;;1999.90;999.90;;;22.80;99.90;;;;;;5059401;28;20182;-80
2021/06/18 05:55:08;;;;;;;1999.90;999.90;;;22.70;99.90;;;;;;5058860;28;20177;-80
2021/06/18 05:57:35;;;;;;;1999.90;999.90;;;22.90;99.90;;;;;;5055742;28;20304;-80
2021/06/18 06:00:03;;;;;;;1999.90;999.90;;;23.00;99.90;;;;;;5037489;28;20287;-79
2021/06/18 06:02:28;;;;;;;1999.90;999.90;;;23.10;99.90;;;;;;5055330;28;20706;-79
2021/06/18 06:04:54;;;;;;;1999.90;999.90;;;23.10;99.90;;;;;;5055728;28;20182;-80
2021/06/18 06:13:45;;;;;;;1999.90;999.90;;;23.30;99.90;;;;;;4984441;28;20743;-80
2021/06/18 06:19:19;;;;;;;1999.90;999.90;;;23.50;99.90;;;;;;5120727;22;20718;-78
2021/06/18 06:21:54;;;;;;;1999.90;999.90;;;23.60;99.90;;;;;;5077097;28;20208;-79
2021/06/18 06:24:20;;;;;;;1999.90;999.90;;;23.70;99.90;;;;;;5095745;28;20654;-79
2021/06/18 06:26:45;;;;;;;1999.90;999.90;;;23.80;99.90;;;;;;5094146;28;20188;-83
2021/06/18 06:29:19;;;;;;;1999.90;999.90;;;23.80;99.90;;;;;;5075636;28;20522;-79
2021/06/18 06:31:45;;;;;;;1999.90;999.90;;;24.00;99.90;;;;;;5058579;28;20200;-79
2021/06/18 06:34:12;;;;;;;1999.90;999.90;;;24.10;99.90;;;;;;5075257;28;20205;-82
2021/06/18 06:36:40;;;;;;;1999.90;999.90;;;24.00;99.90;;;;;;5049336;28;20813;-79
2021/06/18 06:39:06;;;;;;;1999.90;999.90;;;24.00;99.90;;;;;;5057236;28;20212;-79
2021/06/18 06:41:32;;;;;;;1999.90;999.90;;;23.90;99.90;;;;;;5074926;28;20177;-81
2021/06/18 06:43:58;;;;;;;1999.90;999.90;;;23.80;99.90;;;;;;5057708;28;20207;-81
2021/06/18 06:46:24;;;;;;;1999.90;999.90;;;23.90;99.90;;;;;;5076378;28;20177;-82
2021/06/18 06:48:53;;;;;;;1999.90;999.90;;;23.90;99.90;;;;;;5075965;28;20197;-82
2021/06/18 06:51:19;;;;;;;1999.90;999.90;;;24.00;99.90;;;;;;5058604;28;20177;-81
2021/06/18 06:53:45;;;;;;;1999.90;999.90;;;24.20;99.90;;;;;;5058534;28;20179;-82
2021/06/18 06:56:15;;;;;;;1999.90;999.90;;;24.20;99.90;;;;;;5051947;28;20528;-81
2021/06/18 06:58:42;;;;;;;1999.90;999.90;;;24.30;99.90;;;;;;5070110;28;20193;-81
2021/06/18 07:01:09;;;;;;;1999.90;999.90;;;24.30;99.90;;;;;;5058756;28;20181;-82
2021/06/18 07:03:39;;;;;;;1999.90;999.90;;;24.40;99.90;;;;;;5047338;28;20181;-81
2021/06/18 07:06:06;;;;;;;1999.90;999.90;;;24.50;99.90;;;;;;5075422;28;20256;-81
2021/06/18 07:08:32;;;;;;;1999.90;999.90;;;24.60;99.90;;;;;;5058390;28;20253;-80
2021/06/18 07:11:01;;;;;;;1999.90;999.90;;;24.80;99.90;;;;;;5076686;28;20189;-81
2021/06/18 07:13:27;;;;;;;1999.90;999.90;;;24.80;99.90;;;;;;5076629;28;20215;-80
2021/06/18 07:15:53;;;;;;;1999.90;999.90;;;24.80;99.90;;;;;;5072938;28;20181;-80
2021/06/18 07:18:19;;;;;;;1999.90;999.90;;;24.80;99.90;;;;;;5075889;28;20220;-80
2021/06/18 07:20:45;;;;;;;1999.90;999.90;;;25.10;99.90;;;;;;5076727;28;20204;-81
2021/06/18 07:23:10;;;;;;;1999.90;999.90;;;25.20;99.90;;;;;;5077095;28;20231;-80
2021/06/18 07:25:38;;;;;;;1999.90;999.90;;;25.40;99.90;;;;;;5058776;28;20527;-80
2021/06/18 07:28:04;;;;;;;1999.90;999.90;;;25.50;99.90;;;;;;5076525;28;20225;-80
2021/06/18 07:30:31;;;;;;;1999.90;999.90;;;25.60;99.90;;;;;;5075895;28;20185;-80
2021/06/18 07:32:57;;;;;;;1999.90;999.90;;;25.60;99.90;;;;;;5076473;28;20184;-80
2021/06/18 07:35:22;;;;;;;1999.90;999.90;;;25.60;99.90;;;;;;5075703;28;20189;-80
2021/06/18 07:37:48;;;;;;;1999.90;999.90;;;25.70;99.90;;;;;;5075751;28;20585;-80
2021/06/18 07:40:16;;;;;;;1999.90;999.90;;;25.60;99.90;;;;;;5075904;28;20330;-80
2021/06/18 07:42:42;;;;;;;1999.90;999.90;;;25.60;99.90;;;;;;5059670;28;20632;-80
2021/06/18 07:45:09;;;;;;;1999.90;999.90;;;25.70;99.90;;;;;;5061738;28;20212;-80
2021/06/18 07:47:34;;;;;;;1999.90;999.90;;;25.80;99.90;;;;;;5061165;28;20208;-81
2021/06/18 07:50:00;;;;;;;1999.90;999.90;;;25.90;99.90;;;;;;5079593;28;20177;-80
2021/06/18 07:52:26;;;;;;;1999.90;999.90;;;26.00;99.90;;;;;;5079784;28;20212;-81
2021/06/18 07:54:53;;;;;;;1999.90;999.90;;;26.10;99.90;;;;;;5079481;28;20577;-81
2021/06/18 07:57:19;;;;;;;1999.90;999.90;;;26.10;99.90;;;;;;5079742;28;20246;-80
2021/06/18 07:59:45;;;;;;;1999.90;999.90;;;26.30;99.90;;;;;;5079520;28;20193;-80
2021/06/18 08:02:11;;;;;;;1999.90;999.90;;;26.40;99.90;;;;;;5078708;28;20654;-81
2021/06/18 08:04:36;;;;;;;1999.90;999.90;;;26.60;99.90;;;;;;5079720;28;20181;-81
2021/06/18 08:07:02;;;;;;;1999.90;999.90;;;26.60;99.90;;;;;;5061194;28;20270;-80
2021/06/18 08:09:28;;;;;;;1999.90;999.90;;;26.60;99.90;;;;;;5061844;28;20242;-80
2021/06/18 08:11:53;;;;;;;1999.90;999.90;;;26.70;99.90;;;;;;5078945;28;20248;-80
2021/06/18 08:14:19;;;;;;;1999.90;999.90;;;26.80;99.90;;;;;;5080411;28;20219;-80
2021/06/18 08:16:45;;;;;;;1999.90;999.90;;;26.90;99.90;;;;;;5079894;28;20228;-79
2021/06/18 08:19:11;;;;;;;1999.90;999.90;;;27.10;99.90;;;;;;5062199;28;20209;-80
2021/06/18 08:21:36;;;;;;;1999.90;999.90;;;27.10;99.90;;;;;;5080011;28;20178;-80
2021/06/18 08:24:02;;;;;;;1999.90;999.90;;;27.20;99.90;;;;;;5079237;28;20196;-80
2021/06/18 08:26:28;;;;;;;1999.90;999.90;;;27.10;99.90;;;;;;5079577;28;20208;-80
2021/06/18 08:28:54;;;;;;;1999.90;999.90;;;27.10;99.90;;;;;;5080266;28;20256;-80
2021/06/18 08:31:19;;;;;;;1999.90;999.90;;;27.20;99.90;;;;;;5080457;28;20187;-80
2021/06/18 08:33:46;;;;;;;1999.90;999.90;;;27.20;99.90;;;;;;5061970;28;20185;-80
2021/06/18 08:36:12;;;;;;;1999.90;999.90;;;27.20;99.90;;;;;;5079873;28;20666;-80
2021/06/18 08:38:39;;;;;;;1999.90;999.90;;;27.40;99.90;;;;;;5079873;28;20197;-81
2021/06/18 08:41:05;;;;;;;1999.90;999.90;;;27.50;99.90;;;;;;5079981;28;20205;-80
2021/06/18 08:43:32;;;;;;;1999.90;999.90;;;27.50;99.90;;;;;;5079475;28;20626;-80
2021/06/18 08:46:01;;;;;;;1999.90;999.90;;;27.50;99.90;;;;;;5062199;28;20648;-80
2021/06/18 08:48:31;;;;;;;1999.90;999.90;;;27.50;99.90;;;;;;5079235;28;20215;-80
2021/06/18 08:50:58;;;;;;;1999.90;999.90;;;27.50;99.90;;;;;;5079608;28;20177;-80
2021/06/18 08:53:26;;;;;;;1999.90;999.90;;;27.60;99.90;;;;;;5079263;28;20236;-80
2021/06/18 08:55:53;;;;;;;1999.90;999.90;;;27.70;99.90;;;;;;5061417;28;20260;-80
2021/06/18 08:58:20;;;;;;;1999.90;999.90;;;27.90;99.90;;;;;;5070499;28;20209;-81
2021/06/18 09:00:47;;;;;;;1999.90;999.90;;;28.00;99.90;;;;;;5074695;28;20201;-80
2021/06/18 09:03:36;;;;;;;1999.90;999.90;;;28.00;99.90;;;;;;5078661;28;20188;-80
2021/06/18 09:06:26;;;;;;;1999.90;999.90;;;28.10;99.90;;;;;;5041951;28;20178;-80
2021/06/18 09:09:12;;;;;;;1999.90;999.90;;;28.10;99.90;;;;;;5049734;28;20208;-81
2021/06/18 09:11:45;;;;;;;1999.90;999.90;;;28.10;99.90;;;;;;5077750;28;20231;-81
2021/06/18 09:14:30;;;;;;;1999.90;999.90;;;28.00;99.90;;;;;;5078067;28;20178;-82
2021/06/18 09:17:09;;;;;;;1999.90;999.90;;;28.00;99.90;;;;;;5078828;28;20209;-81
2021/06/18 09:19:47;;;;;;;1999.90;999.90;;;28.00;99.90;;;;;;5079581;28;20216;-82
2021/06/18 09:22:20;;;;;;;1999.90;999.90;;;28.20;99.90;;;;;;5073228;28;20166;-81
2021/06/18 09:25:09;;;;;;;1999.90;999.90;;;28.20;99.90;;;;;;5072175;28;20181;-81
2021/06/18 09:27:38;;;;;;;1999.90;999.90;;;28.30;99.90;;;;;;5065763;28;20205;-81
2021/06/18 09:30:17;;;;;;;1999.90;999.90;;;28.30;99.90;;;;;;5053284;28;20545;-80
2021/06/18 09:33:00;;;;;;;1999.90;999.90;;;28.30;99.90;;;;;;5076904;28;20180;-81
2021/06/18 09:35:27;;;;;;;1999.90;999.90;;;28.40;99.90;;;;;;5062461;28;20177;-81
2021/06/18 09:38:01;;;;;;;1999.90;999.90;;;28.60;99.90;;;;;;5061588;28;20189;-80
2021/06/18 09:40:28;;;;;;;1999.90;999.90;;;28.70;99.90;;;;;;5061064;28;20196;-81
2021/06/18 09:42:54;;;;;;;1999.90;999.90;;;28.90;99.90;;;;;;5075209;28;20169;-82
2021/06/18 09:45:29;;;;;;;1999.90;999.90;;;29.00;99.90;;;;;;5078587;28;20173;-81
2021/06/18 09:48:11;;;;;;;1999.90;999.90;;;28.90;99.90;;;;;;5077935;28;20211;-80
2021/06/18 09:50:39;;;;;;;1999.90;999.90;;;28.90;99.90;;;;;;5078331;28;20169;-81
2021/06/18 09:53:22;;;;;;;1999.90;999.90;;;29.20;99.90;;;;;;5079122;28;20258;-81
2021/06/18 09:56:10;;;;;;;1999.90;999.90;;;29.30;99.90;;;;;;5061222;28;20177;-80
2021/06/18 09:58:48;;;;;;;1999.90;999.90;;;29.10;99.90;;;;;;5078516;28;20254;-81
2021/06/18 10:01:28;;;;;;;1999.90;999.90;;;29.10;99.90;;;;;;5078392;28;20682;-81
2021/06/18 10:04:11;;;;;;;1999.90;999.90;;;29.10;99.90;;;;;;5060910;28;20549;-81
2021/06/18 10:06:38;;;;;;;1999.90;999.90;;;29.20;99.90;;;;;;5078129;28;20669;-81
2021/06/18 10:09:06;;;;;;;1999.90;999.90;;;29.40;99.90;;;;;;5078022;28;20201;-82
2021/06/18 10:11:33;;;;;;;1999.90;999.90;;;29.50;99.90;;;;;;5077505;28;20207;-82
2021/06/18 10:13:58;;;;;;;1999.90;999.90;;;29.60;99.90;;;;;;5077946;28;20173;-81
2021/06/18 10:16:26;;;;;;;1999.90;999.90;;;29.80;99.90;;;;;;5060360;28;20205;-81
2021/06/18 10:18:55;;;;;;;1999.90;999.90;;;29.90;99.90;;;;;;5077322;28;20213;-81
2021/06/18 10:21:23;;;;;;;1999.90;999.90;;;29.90;99.90;;;;;;5077517;28;20180;-81
2021/06/18 10:23:54;;;;;;;1999.90;999.90;;;29.90;99.90;;;;;;5060083;28;20581;-80
2021/06/18 10:26:21;;;;;;;1999.90;999.90;;;29.80;99.90;;;;;;5077932;28;20177;-81
2021/06/18 10:28:57;;;;;;;1999.90;999.90;;;30.00;99.90;;;;;;5076733;28;20203;-81
2021/06/18 10:31:35;;;;;;;1999.90;999.90;;;30.20;99.90;;;;;;5078021;28;20725;-81
2021/06/18 10:34:21;;;;;;;1999.90;999.90;;;30.10;99.90;;;;;;5061731;28;20176;-81
2021/06/18 10:36:49;;;;;;;1999.90;999.90;;;30.10;99.90;;;;;;5060860;28;20177;-81
2021/06/18 10:39:19;;;;;;;1999.90;999.90;;;30.00;99.90;;;;;;5059974;28;20228;-81
2021/06/18 10:41:53;;;;;;;1999.90;999.90;;;30.00;99.90;;;;;;5060638;28;20636;-81
2021/06/18 10:44:37;;;;;;;1999.90;999.90;;;30.20;99.90;;;;;;5060262;28;20172;-81
2021/06/18 10:47:04;;;;;;;1999.90;999.90;;;30.30;99.90;;;;;;5077790;28;20188;-81
2021/06/18 10:49:38;;;;;;;1999.90;999.90;;;30.30;99.90;;;;;;5059568;28;20655;-80
2021/06/18 10:52:22;;;;;;;1999.90;999.90;;;30.30;99.90;;;;;;5077715;28;20168;-81
2021/06/18 10:54:51;;;;;;;1999.90;999.90;;;30.30;99.90;;;;;;5077685;28;20180;-81
2021/06/18 10:57:23;;;;;;;1999.90;999.90;;;30.10;99.90;;;;;;5076821;28;20671;-81
2021/06/18 10:59:51;;;;;;;1999.90;999.90;;;30.20;99.90;;;;;;5078411;28;20287;-81
2021/06/18 11:02:34;;;;;;;1999.90;999.90;;;30.50;99.90;;;;;;5078157;28;20652;-81
2021/06/18 11:05:25;;;;;;;1999.90;999.90;;;30.60;99.90;;;;;;5077971;28;20180;-82
2021/06/18 11:08:11;;;;;;;1999.90;999.90;;;30.60;99.90;;;;;;5078703;28;20193;-80
2021/06/18 11:10:38;;;;;;;1999.90;999.90;;;30.40;99.90;;;;;;5059560;28;20173;-81
2021/06/18 11:13:07;;;;;;;1999.90;999.90;;;30.40;99.90;;;;;;5059075;28;20185;-82
2021/06/18 11:15:33;;;;;;;1999.90;999.90;;;30.50;99.90;;;;;;5074666;28;20181;-80
2021/06/18 11:18:02;;;;;;;1999.90;999.90;;;30.50;99.90;;;;;;5077313;28;20223;-81
2021/06/18 11:20:34;;;;;;;1999.90;999.90;;;30.40;99.90;;;;;;5061618;28;20205;-82
2021/06/18 11:23:23;;;;;;;1999.90;999.90;;;30.50;99.90;;;;;;5061200;28;20181;-80
2021/06/18 11:25:56;;;;;;;1999.90;999.90;;;30.70;99.90;;;;;;5079213;28;20173;-80
2021/06/18 11:28:22;;;;;;;1999.90;999.90;;;30.70;99.90;;;;;;5061758;28;20541;-80
2021/06/18 11:31:05;;;;;;;1999.90;999.90;;;30.50;99.90;;;;;;5062098;28;20188;-81
2021/06/18 11:34:01;;;;;;;1999.90;999.90;;;30.50;99.90;;;;;;5057544;28;20192;-80
2021/06/18 11:36:32;;;;;;;1999.90;999.90;;;30.60;99.90;;;;;;5077503;28;20227;-80
2021/06/18 11:39:08;;;;;;;1999.90;999.90;;;30.50;99.90;;;;;;5057455;28;20215;-81
2021/06/18 11:41:40;;;;;;;1999.90;999.90;;;30.60;99.90;;;;;;5076182;28;20215;-80
2021/06/18 11:44:07;;;;;;;1999.90;999.90;;;30.60;99.90;;;;;;5066028;28;20173;-80
2021/06/18 11:46:34;;;;;;;1999.90;999.90;;;30.70;99.90;;;;;;5078192;28;20165;-80
2021/06/18 11:49:24;;;;;;;1999.90;999.90;;;30.60;99.90;;;;;;5077797;28;20220;-80
2021/06/18 11:51:52;;;;;;;1999.90;999.90;;;30.60;99.90;;;;;;5074028;28;20204;-81
2021/06/18 11:54:39;;;;;;;1999.90;999.90;;;30.60;99.90;;;;;;5077193;28;20185;-82
2021/06/18 11:57:12;;;;;;;1999.90;999.90;;;30.80;99.90;;;;;;5056291;28;20211;-81
2021/06/18 11:59:39;;;;;;;1999.90;999.90;;;30.90;99.90;;;;;;5059149;28;20201;-82
2021/06/18 12:02:19;;;;;;;1999.90;999.90;;;30.90;99.90;;;;;;5055894;28;20185;-80
2021/06/18 12:04:46;;;;;;;1999.90;999.90;;;30.90;99.40;;;;;;5056976;28;20179;-81
2021/06/18 12:07:12;;;;;;;1999.90;999.90;;;30.90;99.90;;;;;;5074824;28;20289;-81
2021/06/18 12:09:42;;;;;;;1999.90;999.90;;;31.10;99.90;;;;;;5076815;28;20216;-80
2021/06/18 12:12:08;;;;;;;1999.90;999.90;;;31.00;99.50;;;;;;5071443;28;20647;-82
2021/06/18 12:14:40;;;;;;;1999.90;999.90;;;30.90;99.90;;;;;;5057785;28;20234;-81
2021/06/18 12:17:07;;;;;;;1999.90;999.90;;;30.80;99.90;;;;;;5051112;28;20209;-81
2021/06/18 12:19:44;;;;;;;1999.90;999.90;;;31.00;99.90;;;;;;5054117;28;20202;-81